createdAt,value
2022-08-17T00:01:38.508Z,15.98
2022-08-17T00:04:18.984Z,15.87
2022-08-17T00:06:45.897Z,15.95
2022-08-17T00:09:18.248Z,16.04
2022-08-17T00:12:41.578Z,15.96
2022-08-17T00:14:35.980Z,15.74
2022-08-17T00:17:03.868Z,15.75
2022-08-17T00:19:34.051Z,15.88
2022-08-17T00:22:33.717Z,16.10
2022-08-17T00:24:50.091Z,15.73
2022-08-17T00:27:17.879Z,15.89
2022-08-17T00:29:45.891Z,16.05
2022-08-17T00:33:12.568Z,15.56
2022-08-17T00:35:05.774Z,15.97
2022-08-17T00:37:32.289Z,15.88
2022-08-17T00:39:58.892Z,15.78
2022-08-17T00:42:30.771Z,15.32
2022-08-17T00:44:57.990Z,15.32
2022-08-17T00:47:24.655Z,15.30
2022-08-17T00:49:51.078Z,15.21
2022-08-17T00:52:22.976Z,15.10
2022-08-17T00:54:53.989Z,15.06
2022-08-17T00:57:30.004Z,15.50
2022-08-17T01:00:03.144Z,15.31
2022-08-17T01:02:41.201Z,15.08
2022-08-17T01:05:14.745Z,14.89
2022-08-17T01:07:42.290Z,15.05
2022-08-17T01:10:58.158Z,15.19
2022-08-17T01:12:57.882Z,15.18
2022-08-17T01:15:24.419Z,15.10
2022-08-17T01:17:52.965Z,14.83
2022-08-17T01:20:19.522Z,14.86
2022-08-17T01:22:46.030Z,14.89
2022-08-17T01:25:12.787Z,14.94
2022-08-17T01:27:40.981Z,14.76
2022-08-17T01:30:59.034Z,14.88
2022-08-17T01:33:00.572Z,14.84
2022-08-17T01:35:27.119Z,14.71
2022-08-17T01:37:53.694Z,14.68
2022-08-17T01:40:35.173Z,14.63
2022-08-17T01:43:10.944Z,14.62
2022-08-17T01:45:48.656Z,14.70
2022-08-17T01:48:36.455Z,14.64
2022-08-17T01:51:03.985Z,14.59
2022-08-17T01:53:44.179Z,14.88
2022-08-17T01:56:13.157Z,14.45
2022-08-17T01:58:41.442Z,15.05
2022-08-17T02:01:08.894Z,14.72
2022-08-17T02:03:38.284Z,14.64
2022-08-17T02:06:06.065Z,14.53
2022-08-17T02:09:01.801Z,14.51
2022-08-17T02:11:32.290Z,14.32
2022-08-17T02:14:03.443Z,14.76
2022-08-17T02:16:36.984Z,14.73
2022-08-17T02:19:06.493Z,15.10
2022-08-17T02:21:34.637Z,15.19
2022-08-17T02:24:01.689Z,15.00
2022-08-17T02:26:28.125Z,14.95
2022-08-17T02:28:54.832Z,15.21
2022-08-17T02:31:21.342Z,15.07
2022-08-17T02:34:00.455Z,14.87
2022-08-17T02:36:31.057Z,14.91
2022-08-17T02:38:58.564Z,14.83
2022-08-17T02:41:40.878Z,14.86
2022-08-17T02:44:07.547Z,14.87
2022-08-17T02:46:34.404Z,14.68
2022-08-17T02:49:00.885Z,14.74
2022-08-17T02:51:27.714Z,14.58
2022-08-17T02:54:35.738Z,14.53
2022-08-17T02:56:41.203Z,14.41
2022-08-17T02:59:07.721Z,14.39
2022-08-17T03:01:34.552Z,14.31
2022-08-17T03:04:01.119Z,14.79
2022-08-17T03:06:29.201Z,14.72
2022-08-17T03:08:55.637Z,14.71
2022-08-17T03:11:22.087Z,14.38
2022-08-17T03:13:48.497Z,14.48
2022-08-17T03:16:21.056Z,14.63
2022-08-17T03:18:48.558Z,14.55
2022-08-17T03:21:15.010Z,14.77
2022-08-17T03:23:42.177Z,14.42
2022-08-17T03:26:12.304Z,14.66
2022-08-17T03:28:42.304Z,14.48
2022-08-17T03:31:08.822Z,14.00
2022-08-17T03:33:35.310Z,14.48
2022-08-17T03:36:01.763Z,14.29
2022-08-17T03:38:28.245Z,14.37
2022-08-17T03:40:59.528Z,14.22
2022-08-17T03:43:32.588Z,14.31
2022-08-17T03:46:34.619Z,14.20
2022-08-17T03:49:25.222Z,14.32
2022-08-17T03:52:13.131Z,14.21
2022-08-17T03:54:59.012Z,14.37
2022-08-17T03:57:26.122Z,14.36
2022-08-17T03:59:53.944Z,14.37
2022-08-17T04:02:27.075Z,14.34
2022-08-17T04:04:54.202Z,14.33
2022-08-17T04:07:22.692Z,14.18
2022-08-17T04:09:49.695Z,14.46
2022-08-17T04:12:18.941Z,14.10
2022-08-17T04:14:53.088Z,14.02
2022-08-17T04:17:25.604Z,14.16
2022-08-17T04:19:52.948Z,14.06
2022-08-17T04:22:30.099Z,13.88
2022-08-17T04:25:14.332Z,13.83
2022-08-17T04:27:40.941Z,13.75
2022-08-17T04:30:08.126Z,13.94
2022-08-17T04:33:04.697Z,13.89
2022-08-17T04:35:49.116Z,13.78
2022-08-17T04:38:19.212Z,13.85
2022-08-17T04:41:11.321Z,13.90
2022-08-17T04:43:40.009Z,13.83
2022-08-17T04:46:18.392Z,14.01
2022-08-17T04:48:50.742Z,14.01
2022-08-17T04:51:23.328Z,14.12
2022-08-17T04:53:54.111Z,14.23
2022-08-17T04:56:22.217Z,14.22
2022-08-17T04:58:50.470Z,14.42
2022-08-17T05:01:23.189Z,14.13
2022-08-17T05:03:51.076Z,14.34
2022-08-17T05:06:17.525Z,14.28
2022-08-17T05:08:47.105Z,14.12
2022-08-17T05:11:14.223Z,14.22
2022-08-17T05:13:40.641Z,14.43
2022-08-17T05:16:07.220Z,14.53
2022-08-17T05:18:33.754Z,14.61
2022-08-17T05:21:00.239Z,14.60
2022-08-17T05:23:41.746Z,14.91
2022-08-17T05:26:20.406Z,15.04
2022-08-17T05:29:16.371Z,15.10
2022-08-17T05:31:42.791Z,14.91
2022-08-17T05:34:09.205Z,15.18
2022-08-17T05:36:41.565Z,15.10
2022-08-17T05:39:17.068Z,15.16
2022-08-17T05:41:46.053Z,15.18
2022-08-17T05:44:12.650Z,15.56
2022-08-17T05:46:43.602Z,15.55
2022-08-17T05:49:11.171Z,15.35
2022-08-17T05:51:59.070Z,15.82
2022-08-17T05:54:50.840Z,15.65
2022-08-17T05:57:30.680Z,16.16
2022-08-17T06:00:16.938Z,16.09
2022-08-17T06:03:10.644Z,16.16
2022-08-17T06:06:31.536Z,16.15
2022-08-17T06:09:10.297Z,16.31
2022-08-17T06:12:30.101Z,16.35
2022-08-17T06:15:24.805Z,16.50
2022-08-17T06:17:58.734Z,16.66
2022-08-17T06:20:27.793Z,16.51
2022-08-17T06:23:05.453Z,16.89
2022-08-17T06:25:39.217Z,17.14
2022-08-17T06:28:13.877Z,17.26
2022-08-17T06:31:03.212Z,17.67
2022-08-17T06:33:35.421Z,17.76
2022-08-17T06:36:26.395Z,18.08
2022-08-17T06:39:24.455Z,18.12
2022-08-17T06:43:00.819Z,18.27
2022-08-17T06:45:28.663Z,18.50
2022-08-17T06:48:10.445Z,18.62
2022-08-17T06:50:38.609Z,18.89
2022-08-17T06:53:31.649Z,19.14
2022-08-17T06:56:09.173Z,19.27
2022-08-17T06:58:38.813Z,19.38
2022-08-17T07:01:10.106Z,19.69
2022-08-17T07:03:44.410Z,19.65
2022-08-17T07:06:16.690Z,20.11
2022-08-17T07:09:02.254Z,20.07
2022-08-17T07:11:40.511Z,20.14
2022-08-17T07:14:19.612Z,20.17
2022-08-17T07:16:56.403Z,20.25
2022-08-17T07:19:26.447Z,20.38
2022-08-17T07:22:30.339Z,20.82
2022-08-17T07:25:18.425Z,20.97
2022-08-17T07:27:53.965Z,21.13
2022-08-17T07:30:27.148Z,21.17
2022-08-17T07:32:58.383Z,21.38
2022-08-17T07:35:41.344Z,21.29
2022-08-17T07:38:25.259Z,21.38
2022-08-17T07:40:57.557Z,21.57
2022-08-17T07:43:36.601Z,21.52
2022-08-17T07:46:24.644Z,21.96
2022-08-17T07:48:54.932Z,21.89
2022-08-17T07:51:29.205Z,22.10
2022-08-17T07:54:13.479Z,22.17
2022-08-17T07:56:43.779Z,22.43
2022-08-17T07:59:13.190Z,22.62
2022-08-17T08:01:44.489Z,22.64
2022-08-17T08:04:58.908Z,22.80
2022-08-17T08:07:16.757Z,23.18
2022-08-17T08:09:45.477Z,23.36
2022-08-17T08:12:40.101Z,23.31
2022-08-17T08:15:33.235Z,23.48
2022-08-17T08:18:54.559Z,23.35
2022-08-17T08:21:47.366Z,23.62
2022-08-17T08:24:30.087Z,23.58
2022-08-17T08:27:04.925Z,23.75
2022-08-17T08:30:00.541Z,23.85
2022-08-17T08:33:02.232Z,23.89
2022-08-17T08:35:50.469Z,24.01
2022-08-17T08:38:28.233Z,24.11
2022-08-17T08:41:04.131Z,24.26
2022-08-17T08:43:53.236Z,24.52
2022-08-17T08:46:40.624Z,24.77
2022-08-17T08:49:17.473Z,24.83
2022-08-17T08:51:52.648Z,24.98
2022-08-17T08:54:31.430Z,25.05
2022-08-17T09:00:14.843Z,25.11
2022-08-17T09:02:59.860Z,25.09
2022-08-17T09:05:52.470Z,25.19
2022-08-17T09:08:36.568Z,25.17
2022-08-17T09:11:24.719Z,24.78
2022-08-17T09:14:21.235Z,25.11
2022-08-17T09:17:15.164Z,24.74
2022-08-17T09:19:57.786Z,24.85
2022-08-17T09:22:38.528Z,25.02
2022-08-17T09:25:21.703Z,25.05
2022-08-17T09:28:32.280Z,24.97
2022-08-17T09:31:06.682Z,25.18
2022-08-17T09:33:39.806Z,25.29
2022-08-17T09:36:43.241Z,25.44
2022-08-17T09:39:17.188Z,25.57
2022-08-17T09:42:03.283Z,25.40
2022-08-17T09:44:51.529Z,25.64
2022-08-17T09:47:55.683Z,25.79
2022-08-17T09:51:03.409Z,25.93
2022-08-17T09:53:37.145Z,25.82
2022-08-17T09:56:46.015Z,25.08
2022-08-17T09:59:38.601Z,25.03
2022-08-17T10:02:25.206Z,25.14
2022-08-17T10:05:32.314Z,24.82
2022-08-17T10:08:23.889Z,24.61
2022-08-17T10:11:48.286Z,24.38
2022-08-17T10:14:43.997Z,23.92
2022-08-17T10:17:21.397Z,23.98
2022-08-17T10:20:19.058Z,24.38
2022-08-17T10:23:13.339Z,24.76
2022-08-17T10:26:04.768Z,24.44
2022-08-17T10:28:40.046Z,24.42
2022-08-17T10:31:33.650Z,24.32
2022-08-17T10:34:11.818Z,24.74
2022-08-17T10:36:54.666Z,24.62
2022-08-17T10:39:26.354Z,24.59
2022-08-17T10:42:00.520Z,24.52
2022-08-17T10:44:48.360Z,24.53
2022-08-17T10:47:18.137Z,24.07
2022-08-17T10:49:53.918Z,24.30
2022-08-17T10:52:20.725Z,23.92
2022-08-17T10:54:58.625Z,24.34
2022-08-17T10:57:31.854Z,24.44
2022-08-17T11:00:06.926Z,24.39
2022-08-17T11:02:52.373Z,24.38
2022-08-17T11:05:41.509Z,24.73
2022-08-17T11:08:51.991Z,24.71
2022-08-17T11:11:36.145Z,25.00
2022-08-17T11:14:27.207Z,25.30
2022-08-17T11:17:26.815Z,25.52
2022-08-17T11:20:22.593Z,25.30
2022-08-17T11:23:10.759Z,25.38
2022-08-17T11:25:47.187Z,25.51
2022-08-17T11:28:21.048Z,25.73
2022-08-17T11:30:49.759Z,25.63
2022-08-17T11:33:36.775Z,26.07
2022-08-17T11:36:11.757Z,26.11
2022-08-17T11:38:59.666Z,26.23
2022-08-17T11:42:07.757Z,25.87
2022-08-17T11:44:53.102Z,26.15
2022-08-17T11:48:23.825Z,26.29
2022-08-17T11:51:16.706Z,26.16
2022-08-17T11:53:43.061Z,25.91
2022-08-17T11:56:31.480Z,26.06
2022-08-17T11:59:00.437Z,26.34
2022-08-17T12:01:26.908Z,26.50
2022-08-17T12:03:58.867Z,26.26
2022-08-17T12:06:42.054Z,26.26
2022-08-17T12:09:17.494Z,26.45
2022-08-17T12:12:01.645Z,26.57
2022-08-17T12:15:05.686Z,26.43
2022-08-17T12:17:39.498Z,26.48
2022-08-17T12:20:24.340Z,26.84
2022-08-17T12:23:18.097Z,26.97
2022-08-17T12:25:56.643Z,26.79
2022-08-17T12:28:32.540Z,27.26
2022-08-17T12:31:06.518Z,27.44
2022-08-17T12:33:35.951Z,27.37
2022-08-17T12:36:06.475Z,27.31
2022-08-17T12:38:36.073Z,27.51
2022-08-17T12:41:25.103Z,27.47
2022-08-17T12:44:05.955Z,27.51
2022-08-17T12:46:45.917Z,27.40
2022-08-17T12:49:36.930Z,27.42
2022-08-17T12:52:06.512Z,27.47
2022-08-17T12:54:41.983Z,27.32
2022-08-17T12:57:16.661Z,27.30
2022-08-17T12:59:47.520Z,27.45
2022-08-17T13:02:28.355Z,27.48
2022-08-17T13:04:57.965Z,27.16
2022-08-17T13:07:29.995Z,27.27
2022-08-17T13:09:56.592Z,27.40
2022-08-17T13:12:34.754Z,27.46
2022-08-17T13:15:01.845Z,27.77
2022-08-17T13:17:35.787Z,27.85
2022-08-17T13:20:06.127Z,28.10
2022-08-17T13:22:32.887Z,28.15
2022-08-17T13:25:04.045Z,28.21
2022-08-17T13:27:31.753Z,28.48
2022-08-17T13:30:02.218Z,28.19
2022-08-17T13:32:47.607Z,27.67
2022-08-17T13:35:34.466Z,28.11
2022-08-17T13:38:10.313Z,28.20
2022-08-17T13:40:49.044Z,27.71
2022-08-17T13:43:44.931Z,28.55
2022-08-17T13:46:31.042Z,28.56
2022-08-17T13:49:01.806Z,28.69
2022-08-17T13:51:42.359Z,28.85
2022-08-17T13:54:32.511Z,28.93
2022-08-17T13:57:02.371Z,28.77
2022-08-17T13:59:54.141Z,28.40
2022-08-17T14:02:23.276Z,28.81
2022-08-17T14:04:56.417Z,29.09
2022-08-17T14:07:30.155Z,28.83
2022-08-17T14:10:24.992Z,28.87
2022-08-17T14:12:52.741Z,29.34
2022-08-17T14:15:22.445Z,29.42
2022-08-17T14:17:51.511Z,28.95
2022-08-17T14:20:22.268Z,28.74
2022-08-17T14:22:53.721Z,28.84
2022-08-17T14:25:24.466Z,28.94
2022-08-17T14:28:08.941Z,28.85
2022-08-17T14:30:37.711Z,28.97
2022-08-17T14:33:05.885Z,28.65
2022-08-17T14:35:53.564Z,29.07
2022-08-17T14:38:20.828Z,29.19
2022-08-17T14:40:49.136Z,29.26
2022-08-17T14:43:15.802Z,29.26
2022-08-17T14:45:45.406Z,28.88
2022-08-17T14:48:13.912Z,28.54
2022-08-17T14:50:42.355Z,28.89
2022-08-17T14:53:13.369Z,28.79
2022-08-17T14:55:40.395Z,29.04
2022-08-17T14:58:10.307Z,29.14
2022-08-17T15:00:37.821Z,29.16
2022-08-17T15:03:05.325Z,29.08
2022-08-17T15:05:35.371Z,29.11
2022-08-17T15:08:03.450Z,29.19
2022-08-17T15:10:31.506Z,29.17
2022-08-17T15:12:58.716Z,28.79
2022-08-17T15:15:25.887Z,28.75
2022-08-17T15:17:52.344Z,28.67
2022-08-17T15:20:29.697Z,28.94
2022-08-17T15:22:59.025Z,28.97
2022-08-17T15:25:27.738Z,28.98
2022-08-17T15:27:55.970Z,28.78
2022-08-17T15:30:23.469Z,28.78
2022-08-17T15:32:55.181Z,28.53
2022-08-17T15:35:27.442Z,28.25
2022-08-17T15:37:56.689Z,28.32
2022-08-17T15:40:23.302Z,28.07
2022-08-17T15:42:51.037Z,28.00
2022-08-17T15:45:22.873Z,28.17
2022-08-17T15:47:49.443Z,27.86
2022-08-17T15:50:16.063Z,27.72
2022-08-17T15:52:44.853Z,27.97
2022-08-17T15:55:13.864Z,28.08
2022-08-17T15:57:40.679Z,28.01
2022-08-17T16:00:09.397Z,27.87
2022-08-17T16:03:13.363Z,27.90
2022-08-17T16:05:24.960Z,27.82
2022-08-17T16:07:52.281Z,27.96
2022-08-17T16:10:19.576Z,28.05
2022-08-17T16:12:47.958Z,28.09
2022-08-17T16:15:15.423Z,27.92
2022-08-17T16:17:42.262Z,27.71
2022-08-17T16:20:20.698Z,27.72
2022-08-17T16:22:48.258Z,27.59
2022-08-17T16:25:22.002Z,27.71
2022-08-17T16:27:53.530Z,27.72
2022-08-17T16:30:23.543Z,27.53
2022-08-17T16:32:51.784Z,27.43
2022-08-17T16:35:21.214Z,27.28
2022-08-17T16:37:48.276Z,27.21
2022-08-17T16:40:17.027Z,27.18
2022-08-17T16:42:45.865Z,27.39
2022-08-17T16:45:19.774Z,27.24
2022-08-17T16:47:48.222Z,27.34
2022-08-17T16:50:17.638Z,27.35
2022-08-17T16:52:48.385Z,27.14
2022-08-17T16:55:19.363Z,26.98
2022-08-17T16:57:49.971Z,27.02
2022-08-17T17:00:19.271Z,27.07
2022-08-17T17:02:47.823Z,26.84
2022-08-17T17:05:14.360Z,26.93
2022-08-17T17:08:12.788Z,26.97
2022-08-17T17:10:47.808Z,26.63
2022-08-17T17:13:23.715Z,26.51
2022-08-17T17:15:58.884Z,26.65
2022-08-17T17:18:41.188Z,26.51
2022-08-17T17:21:13.868Z,26.41
2022-08-17T17:23:52.339Z,26.46
2022-08-17T17:26:34.773Z,26.31
2022-08-17T17:29:10.245Z,26.38
2022-08-17T17:31:45.137Z,26.16
2022-08-17T17:34:15.841Z,26.13
2022-08-17T17:36:50.145Z,25.98
2022-08-17T17:39:31.823Z,25.89
2022-08-17T17:42:02.483Z,25.77
2022-08-17T17:44:43.496Z,25.75
2022-08-17T17:47:11.868Z,25.46
2022-08-17T17:49:41.318Z,25.12
2022-08-17T17:52:19.133Z,25.07
2022-08-17T17:55:00.711Z,25.09
2022-08-17T17:57:58.015Z,25.27
2022-08-17T18:00:31.174Z,24.74
2022-08-17T18:03:06.848Z,24.64
2022-08-17T18:05:45.724Z,24.60
2022-08-17T18:08:34.764Z,24.54
2022-08-17T18:11:34.714Z,24.13
2022-08-17T18:14:29.271Z,24.03
2022-08-17T18:16:59.659Z,23.99
2022-08-17T18:19:28.178Z,23.75
2022-08-17T18:22:07.213Z,23.82
2022-08-17T18:24:37.832Z,23.79
2022-08-17T18:27:19.045Z,23.66
2022-08-17T18:29:47.599Z,23.53
2022-08-17T18:32:49.562Z,22.76
2022-08-17T18:35:19.025Z,22.41
2022-08-17T18:38:19.473Z,22.48
2022-08-17T18:40:56.435Z,21.90
2022-08-17T18:43:44.192Z,21.64
2022-08-17T18:46:40.080Z,21.65
2022-08-17T18:49:27.160Z,21.72
2022-08-17T18:52:13.954Z,21.67
2022-08-17T18:54:59.311Z,21.26
2022-08-17T18:57:42.929Z,21.02
2022-08-17T19:00:17.264Z,21.08
2022-08-17T19:02:57.219Z,20.99
2022-08-17T19:05:35.181Z,21.24
2022-08-17T19:08:37.838Z,21.11
2022-08-17T19:11:10.208Z,20.82
2022-08-17T19:13:57.562Z,20.80
2022-08-17T19:16:32.435Z,20.72
2022-08-17T19:19:05.592Z,20.55
2022-08-17T19:21:40.351Z,20.52
2022-08-17T19:24:19.377Z,20.49
2022-08-17T19:27:14.831Z,20.61
2022-08-17T19:29:53.926Z,20.46
2022-08-17T19:32:26.555Z,20.70
2022-08-17T19:34:53.239Z,20.81
2022-08-17T19:38:01.713Z,20.75
2022-08-17T19:41:00.538Z,20.58
2022-08-17T19:43:55.691Z,20.66
2022-08-17T19:47:01.294Z,20.53
2022-08-17T19:49:40.925Z,20.37
2022-08-17T19:52:30.597Z,20.47
2022-08-17T19:55:23.894Z,20.31
2022-08-17T19:57:50.504Z,20.41
2022-08-17T20:00:18.708Z,20.37
2022-08-17T20:03:05.609Z,20.34
2022-08-17T20:06:01.322Z,19.77
2022-08-17T20:08:27.188Z,20.01
2022-08-17T20:10:55.436Z,20.13
2022-08-17T20:13:35.450Z,20.19
2022-08-17T20:16:03.816Z,20.01
2022-08-17T20:18:33.269Z,20.03
2022-08-17T20:21:06.097Z,19.42
2022-08-17T20:23:53.357Z,19.30
2022-08-17T20:26:38.690Z,19.01
2022-08-17T20:29:15.350Z,18.88
2022-08-17T20:31:53.965Z,19.26
2022-08-17T20:34:34.884Z,19.56
2022-08-17T20:37:10.778Z,19.28
2022-08-17T20:39:42.224Z,19.10
2022-08-17T20:42:20.868Z,18.75
2022-08-17T20:44:55.570Z,18.52
2022-08-17T20:47:31.863Z,18.32
2022-08-17T20:50:05.402Z,18.06
2022-08-17T20:53:00.709Z,18.33
2022-08-17T20:55:51.426Z,18.22
2022-08-17T20:58:25.236Z,18.26
2022-08-17T21:00:57.713Z,17.82
2022-08-17T21:03:24.303Z,17.88
2022-08-17T21:06:17.149Z,17.67
2022-08-17T21:08:59.005Z,17.63
2022-08-17T21:11:57.160Z,17.50
2022-08-17T21:14:44.542Z,17.45
2022-08-17T21:17:26.249Z,17.51
2022-08-17T21:20:27.030Z,17.38
2022-08-17T21:23:18.113Z,17.19
2022-08-17T21:26:06.332Z,17.29
2022-08-17T21:28:35.703Z,17.30
2022-08-17T21:31:08.529Z,17.24
2022-08-17T21:33:39.580Z,17.04
2022-08-17T21:36:12.057Z,17.19
2022-08-17T21:38:42.297Z,17.25
2022-08-17T21:41:31.775Z,17.42
2022-08-17T21:44:30.509Z,17.34
2022-08-17T21:47:24.485Z,17.34
2022-08-17T21:49:52.368Z,17.31
2022-08-17T21:52:21.847Z,17.45
2022-08-17T21:54:53.066Z,17.56
2022-08-17T21:57:23.455Z,17.50
2022-08-17T22:00:01.894Z,17.37
2022-08-17T22:02:41.641Z,17.50
2022-08-17T22:05:13.223Z,17.54
2022-08-17T22:07:42.669Z,17.57
2022-08-17T22:10:30.547Z,17.61
2022-08-17T22:13:20.600Z,17.59
2022-08-17T22:16:15.632Z,17.39
2022-08-17T22:18:58.755Z,17.17
2022-08-17T22:21:26.245Z,17.22
2022-08-17T22:24:07.567Z,16.90
2022-08-17T22:27:00.080Z,17.46
2022-08-17T22:29:48.017Z,17.60
2022-08-17T22:32:45.607Z,17.52
2022-08-17T22:35:42.056Z,17.44
2022-08-17T22:38:20.708Z,17.42
2022-08-17T22:40:53.799Z,17.21
2022-08-17T22:43:26.055Z,17.32
2022-08-17T22:45:55.777Z,17.38
2022-08-17T22:48:27.412Z,17.55
2022-08-17T22:51:13.417Z,17.63
2022-08-17T22:54:15.092Z,17.54
2022-08-17T22:57:19.130Z,17.59
2022-08-17T22:59:54.667Z,17.67
2022-08-17T23:02:26.335Z,17.63
2022-08-17T23:05:16.580Z,17.66
2022-08-17T23:07:45.457Z,17.61
2022-08-17T23:10:13.857Z,17.68
2022-08-17T23:12:40.594Z,17.69
2022-08-17T23:15:17.372Z,17.74
2022-08-17T23:17:45.367Z,17.65
2022-08-17T23:20:14.998Z,17.64
2022-08-17T23:22:51.440Z,17.63
2022-08-17T23:25:29.509Z,17.49
2022-08-17T23:27:58.378Z,17.62
2022-08-17T23:30:25.646Z,17.61
2022-08-17T23:32:54.318Z,17.56
2022-08-17T23:35:39.650Z,17.82
2022-08-17T23:38:07.815Z,17.51
2022-08-17T23:40:34.479Z,17.72
2022-08-17T23:43:01.058Z,17.68
2022-08-17T23:45:32.495Z,17.66
2022-08-17T23:47:58.930Z,17.48
2022-08-17T23:50:25.432Z,17.46
2022-08-17T23:52:57.618Z,17.65
2022-08-17T23:55:24.045Z,17.54
2022-08-17T23:57:50.694Z,17.56
